APL New Jersey — A8NM6 — position and weather

sailwx.info

Track history (hours):
 
Tides and Currents Weather Stations Pressure Air Temp Water Temp Dewpoint Dewpoint Depression Visibility Wind Speed Wind Dir Waves Ship Positions

APL New Jersey

Last reported at 2014-Sep-03 06:34 UTC. Time now 2014-Sep-03 07:25 UTC.
Position N 22°34' E 120°19'.

Length 293 m; draft 13.7 m.

Type: Cargo ship. MMSI: 636013522.

Date/timePositionNaut miles runAvg speedWind from/ knotsBaromVisibWave heightAir tempDewpointWater temp
2014-Sep-03 06:34N 22°34' E 120°19'0 0.0
2014-Sep-03 05:04N 22°34' E 120°19'0 0.0
2014-Sep-03 04:28N 22°34' E 120°19'0 0.0
2014-Sep-03 03:34N 22°34' E 120°19'0 0.0
2014-Sep-03 02:28N 22°34' E 120°19'0 0.0
2014-Sep-03 00:22N 22°34' E 120°19'0 0.0
2014-Sep-02 23:34N 22°34' E 120°19'0 0.0
2014-Sep-02 22:34N 22°34' E 120°19'4 4.2
2014-Sep-02 21:33N 22°32' E 120°15'1313.1
2014-Sep-02 20:33N 22°31' E 120°01'1817.7
2014-Sep-02 19:33N 22°30' E 119°42'1515.1
2014-Sep-02 18:33N 22°28' E 119°25'1716.3
2014-Sep-02 17:32N 22°26' E 119°08'1916.6
2014-Sep-02 16:24N 22°24' E 118°47'1416.3
2014-Sep-02 15:33N 22°23' E 118°32'1616.3
2014-Sep-02 14:33N 22°22' E 118°15'1616.3
2014-Sep-02 13:33N 22°23' E 117°57'1616.1
2014-Sep-02 12:34N 22°24' E 117°40'1817.9
2014-Sep-02 11:33N 22°22' E 117°20'18017.7
2014-Sep-02 01:23N 22°17' E 114°06'1111.0
2014-Sep-02 00:23N 22°22' E 113°55'7 7.9
2014-Sep-01 23:33N 22°28' E 113°52'0 0.1
2014-Sep-01 22:23N 22°28' E 113°53'0 0.0
2014-Sep-01 21:29N 22°28' E 113°53'0 0.0
2014-Sep-01 20:29N 22°28' E 113°53'0 0.0
2014-Sep-01 19:29N 22°28' E 113°53'0 0.0
2014-Sep-01 18:29N 22°28' E 113°53'0 0.0
2014-Sep-01 17:29N 22°28' E 113°53'0 0.0
2014-Sep-01 16:29N 22°28' E 113°53'0 0.0
2014-Sep-01 15:32N 22°28' E 113°53'0 0.0
2014-Sep-01 13:14N 22°28' E 113°53'0 0.0
2014-Sep-01 12:32N 22°28' E 113°53'0 0.0
2014-Sep-01 10:29N 22°28' E 113°53'0 0.0
2014-Sep-01 09:29N 22°28' E 113°53'0 0.0
2014-Sep-01 08:29N 22°28' E 113°53'3 3.4
2014-Sep-01 07:33N 22°25' E 113°53'10 9.7
2014-Sep-01 06:30N 22°22' E 114°04'1310.4
2014-Sep-01 05:12N 22°11' E 114°12'  
2014-Aug-29 00:12N 01°16' E 104°09'1218.8
2014-Aug-28 23:33N 01°14' E 103°57'7 6.6
2014-Aug-28 22:32N 01°16' E 103°51'0 0.3
2014-Aug-28 21:33N 01°16' E 103°50'0 0.0
2014-Aug-28 20:33N 01°16' E 103°50'0 0.0
2014-Aug-28 19:27N 01°16' E 103°50'0 0.0
2014-Aug-28 18:30N 01°16' E 103°50'0 0.0
2014-Aug-28 16:18N 01°16' E 103°50'0 0.0
2014-Aug-28 14:24N 01°16' E 103°50'0 0.0
2014-Aug-28 13:30N 01°16' E 103°50'0 0.0
2014-Aug-28 12:30N 01°16' E 103°50'0 0.0
2014-Aug-28 10:30N 01°16' E 103°50'0 0.0
2014-Aug-28 07:30N 01°16' E 103°50'0 0.0
2014-Aug-28 05:27N 01°16' E 103°50'0 0.0
2014-Aug-28 00:30N 01°16' E 103°50'0 0.0
2014-Aug-27 23:33N 01°16' E 103°50'0 0.0
2014-Aug-27 22:33N 01°16' E 103°50'0 0.0
2014-Aug-27 21:33N 01°16' E 103°50'0 0.0
2014-Aug-27 18:21N 01°16' E 103°50'0 0.0
2014-Aug-27 17:33N 01°16' E 103°50'0 0.0
2014-Aug-27 16:27N 01°16' E 103°50'0 0.0
2014-Aug-27 15:33N 01°16' E 103°50'0 0.0
2014-Aug-27 14:33N 01°16' E 103°50'0 0.0
2014-Aug-27 13:33N 01°16' E 103°50'0 0.0
2014-Aug-27 12:33N 01°16' E 103°50'0 0.0
2014-Aug-27 11:33N 01°16' E 103°50'0 0.0
2014-Aug-27 10:33N 01°16' E 103°50'0 0.0
2014-Aug-27 09:33N 01°16' E 103°50'0 0.0
2014-Aug-27 08:33N 01°16' E 103°50'0 0.0
2014-Aug-27 07:30N 01°16' E 103°50'0 0.0
2014-Aug-27 06:30N 01°16' E 103°50'0 0.0
2014-Aug-27 05:33N 01°16' E 103°50'0 0.0
2014-Aug-27 04:33N 01°16' E 103°50'0 0.0
2014-Aug-27 03:33N 01°16' E 103°50'0 0.0
2014-Aug-27 02:33N 01°16' E 103°50'0 0.0
2014-Aug-27 01:33N 01°16' E 103°50'0 0.0
2014-Aug-27 00:33N 01°16' E 103°50'0 0.0
2014-Aug-26 23:33N 01°16' E 103°50'0 0.0
2014-Aug-26 22:33N 01°16' E 103°50'0 0.0
2014-Aug-26 21:33N 01°16' E 103°50'0 0.0
2014-Aug-26 20:33N 01°16' E 103°50'0 0.0
2014-Aug-26 19:33N 01°16' E 103°50'0 0.0
2014-Aug-26 18:33N 01°16' E 103°50'0 0.0
2014-Aug-26 17:33N 01°16' E 103°50'1 0.8
2014-Aug-26 16:33N 01°15' E 103°51'2 2.2
2014-Aug-26 15:31N 01°14' E 103°53'0 0.0
2014-Aug-26 14:31N 01°14' E 103°53'0 0.5
2014-Aug-26 13:33N 01°14' E 103°53'3 3.4
2014-Aug-26 12:33N 01°14' E 103°56'1311.7
2014-Aug-26 11:25N 01°17' E 104°09'  
Track history (hours):
 
Tides and Currents Weather Stations Pressure Air Temp Water Temp Dewpoint Dewpoint Depression Visibility Wind Speed Wind Dir Waves Ship Positions

APL New Jersey

Last reported at 2014-Sep-03 06:34 UTC. Time now 2014-Sep-03 07:25 UTC.
Position N 22°34' E 120°19'.

Length 293 m; draft 13.7 m.

Type: Cargo ship. MMSI: 636013522.

Date/timePositionNaut miles runAvg speedWind from/ knotsBaromVisibWave heightAir tempDewpointWater temp
2014-Sep-03 06:34N 22°34' E 120°19'0 0.0
2014-Sep-03 05:04N 22°34' E 120°19'0 0.0
2014-Sep-03 04:28N 22°34' E 120°19'0 0.0
2014-Sep-03 03:34N 22°34' E 120°19'0 0.0
2014-Sep-03 02:28N 22°34' E 120°19'0 0.0
2014-Sep-03 00:22N 22°34' E 120°19'0 0.0
2014-Sep-02 23:34N 22°34' E 120°19'0 0.0
2014-Sep-02 22:34N 22°34' E 120°19'4 4.2
2014-Sep-02 21:33N 22°32' E 120°15'1313.1
2014-Sep-02 20:33N 22°31' E 120°01'1817.7
2014-Sep-02 19:33N 22°30' E 119°42'1515.1
2014-Sep-02 18:33N 22°28' E 119°25'1716.3
2014-Sep-02 17:32N 22°26' E 119°08'1916.6
2014-Sep-02 16:24N 22°24' E 118°47'1416.3
2014-Sep-02 15:33N 22°23' E 118°32'1616.3
2014-Sep-02 14:33N 22°22' E 118°15'1616.3
2014-Sep-02 13:33N 22°23' E 117°57'1616.1
2014-Sep-02 12:34N 22°24' E 117°40'1817.9
2014-Sep-02 11:33N 22°22' E 117°20'18017.7
2014-Sep-02 01:23N 22°17' E 114°06'1111.0
2014-Sep-02 00:23N 22°22' E 113°55'7 7.9
2014-Sep-01 23:33N 22°28' E 113°52'0 0.1
2014-Sep-01 22:23N 22°28' E 113°53'0 0.0
2014-Sep-01 21:29N 22°28' E 113°53'0 0.0
2014-Sep-01 20:29N 22°28' E 113°53'0 0.0
2014-Sep-01 19:29N 22°28' E 113°53'0 0.0
2014-Sep-01 18:29N 22°28' E 113°53'0 0.0
2014-Sep-01 17:29N 22°28' E 113°53'0 0.0
2014-Sep-01 16:29N 22°28' E 113°53'0 0.0
2014-Sep-01 15:32N 22°28' E 113°53'0 0.0
2014-Sep-01 13:14N 22°28' E 113°53'0 0.0
2014-Sep-01 12:32N 22°28' E 113°53'0 0.0
2014-Sep-01 10:29N 22°28' E 113°53'0 0.0
2014-Sep-01 09:29N 22°28' E 113°53'0 0.0
2014-Sep-01 08:29N 22°28' E 113°53'3 3.4
2014-Sep-01 07:33N 22°25' E 113°53'10 9.7
2014-Sep-01 06:30N 22°22' E 114°04'1310.4
2014-Sep-01 05:12N 22°11' E 114°12'  
2014-Aug-29 00:12N 01°16' E 104°09'1218.8
2014-Aug-28 23:33N 01°14' E 103°57'7 6.6
2014-Aug-28 22:32N 01°16' E 103°51'0 0.3
2014-Aug-28 21:33N 01°16' E 103°50'0 0.0
2014-Aug-28 20:33N 01°16' E 103°50'0 0.0
2014-Aug-28 19:27N 01°16' E 103°50'0 0.0
2014-Aug-28 18:30N 01°16' E 103°50'0 0.0
2014-Aug-28 16:18N 01°16' E 103°50'0 0.0
2014-Aug-28 14:24N 01°16' E 103°50'0 0.0
2014-Aug-28 13:30N 01°16' E 103°50'0 0.0
2014-Aug-28 12:30N 01°16' E 103°50'0 0.0
2014-Aug-28 10:30N 01°16' E 103°50'0 0.0
2014-Aug-28 07:30N 01°16' E 103°50'0 0.0
2014-Aug-28 05:27N 01°16' E 103°50'0 0.0
2014-Aug-28 00:30N 01°16' E 103°50'0 0.0
2014-Aug-27 23:33N 01°16' E 103°50'0 0.0
2014-Aug-27 22:33N 01°16' E 103°50'0 0.0
2014-Aug-27 21:33N 01°16' E 103°50'0 0.0
2014-Aug-27 18:21N 01°16' E 103°50'0 0.0
2014-Aug-27 17:33N 01°16' E 103°50'0 0.0
2014-Aug-27 16:27N 01°16' E 103°50'0 0.0
2014-Aug-27 15:33N 01°16' E 103°50'0 0.0
2014-Aug-27 14:33N 01°16' E 103°50'0 0.0
2014-Aug-27 13:33N 01°16' E 103°50'0 0.0
2014-Aug-27 12:33N 01°16' E 103°50'0 0.0
2014-Aug-27 11:33N 01°16' E 103°50'0 0.0
2014-Aug-27 10:33N 01°16' E 103°50'0 0.0
2014-Aug-27 09:33N 01°16' E 103°50'0 0.0
2014-Aug-27 08:33N 01°16' E 103°50'0 0.0
2014-Aug-27 07:30N 01°16' E 103°50'0 0.0
2014-Aug-27 06:30N 01°16' E 103°50'0 0.0
2014-Aug-27 05:33N 01°16' E 103°50'0 0.0
2014-Aug-27 04:33N 01°16' E 103°50'0 0.0
2014-Aug-27 03:33N 01°16' E 103°50'0 0.0
2014-Aug-27 02:33N 01°16' E 103°50'0 0.0
2014-Aug-27 01:33N 01°16' E 103°50'0 0.0
2014-Aug-27 00:33N 01°16' E 103°50'0 0.0
2014-Aug-26 23:33N 01°16' E 103°50'0 0.0
2014-Aug-26 22:33N 01°16' E 103°50'0 0.0
2014-Aug-26 21:33N 01°16' E 103°50'0 0.0
2014-Aug-26 20:33N 01°16' E 103°50'0 0.0
2014-Aug-26 19:33N 01°16' E 103°50'0 0.0
2014-Aug-26 18:33N 01°16' E 103°50'0 0.0
2014-Aug-26 17:33N 01°16' E 103°50'1 0.8
2014-Aug-26 16:33N 01°15' E 103°51'2 2.2
2014-Aug-26 15:31N 01°14' E 103°53'0 0.0
2014-Aug-26 14:31N 01°14' E 103°53'0 0.5
2014-Aug-26 13:33N 01°14' E 103°53'3 3.4
2014-Aug-26 12:33N 01°14' E 103°56'1311.7
2014-Aug-26 11:25N 01°17' E 104°09'  

Dump ship's entire track history